Oakwood, Ohio
Current Conditions -  °F | °C
As of 8:45 AM on Saturday 25 Oct 2014 (Local Time) from KDFI Reporting Station
Haze Haze  
Wind Chill: 55°   Ceiling: 1900
Heat Index: 55°   Visibility: 4mi
Dew Point: 51°   Wind: 6mph
Humidity: 86%   Direction: 230°SW
Pressure: 29.9"   Gusts: NA
Location:  41.1°N, 84.38°W
Report Text: KDFI 251245Z AUTO 23005KT 4SM BR BKN019 BKN045 13/11 A2990 RMK AO2 T01280106
Loading
Personal Weather Stations






























Interactive Weather Map
Tropical Storm Tracking
New forecast layout! Learn more

10-Day Weather Forecast

Advertisements
Track Severe Weather on mobile